createdAt,value
2023-01-09T00:00:52.647Z,72.40
2023-01-09T00:03:19.540Z,71.00
2023-01-09T00:05:46.534Z,70.10
2023-01-09T00:08:13.434Z,71.80
2023-01-09T00:10:40.276Z,70.50
2023-01-09T00:13:07.124Z,73.70
2023-01-09T00:15:33.992Z,72.50
2023-01-09T00:18:00.859Z,70.50
2023-01-09T00:20:27.715Z,72.70
2023-01-09T00:22:54.519Z,70.70
2023-01-09T00:25:22.808Z,73.40
2023-01-09T00:27:49.682Z,73.10
2023-01-09T00:30:16.761Z,73.60
2023-01-09T00:32:43.622Z,71.10
2023-01-09T00:35:15.144Z,71.10
2023-01-09T00:37:41.995Z,73.00
2023-01-09T00:40:10.063Z,73.30
2023-01-09T00:42:37.625Z,71.20
2023-01-09T00:45:09.679Z,73.50
2023-01-09T00:47:42.899Z,71.30
2023-01-09T00:50:20.354Z,73.80
2023-01-09T00:52:48.291Z,71.50
2023-01-09T00:55:15.803Z,71.70
2023-01-09T00:57:42.779Z,73.20
2023-01-09T01:00:11.033Z,71.30
2023-01-09T01:02:37.917Z,71.30
2023-01-09T01:05:23.590Z,73.10
2023-01-09T01:07:50.497Z,71.30
2023-01-09T01:10:23.416Z,71.30
2023-01-09T01:12:51.403Z,73.90
2023-01-09T01:15:19.185Z,73.00
2023-01-09T01:17:46.985Z,71.50
2023-01-09T01:20:16.713Z,71.60
2023-01-09T01:22:43.739Z,71.70
2023-01-09T01:25:12.392Z,71.70
2023-01-09T01:27:39.726Z,71.90
2023-01-09T01:30:09.002Z,74.00
2023-01-09T01:32:35.978Z,72.00
2023-01-09T01:35:03.233Z,73.40
2023-01-09T01:37:30.451Z,72.00
2023-01-09T01:39:57.481Z,72.10
2023-01-09T01:42:24.447Z,74.80
2023-01-09T01:45:12.800Z,74.50
2023-01-09T01:48:08.928Z,72.60
2023-01-09T01:50:43.056Z,75.30
2023-01-09T01:53:21.494Z,72.50
2023-01-09T01:56:14.328Z,72.50
2023-01-09T01:59:06.180Z,72.90
2023-01-09T02:01:33.896Z,73.00
2023-01-09T02:04:02.421Z,72.60
2023-01-09T02:06:30.489Z,73.50
2023-01-09T02:08:57.790Z,75.20
2023-01-09T02:11:25.209Z,72.80
2023-01-09T02:13:52.653Z,74.40
2023-01-09T02:16:37.609Z,74.90
2023-01-09T02:19:10.102Z,73.80
2023-01-09T02:21:58.225Z,73.30
2023-01-09T02:24:57.349Z,73.80
2023-01-09T02:28:02.239Z,74.50
2023-01-09T02:30:47.914Z,75.20
2023-01-09T02:34:02.231Z,73.50
2023-01-09T02:36:32.659Z,74.90
2023-01-09T02:39:24.022Z,74.80
2023-01-09T02:42:04.158Z,74.70
2023-01-09T02:44:34.612Z,74.50
2023-01-09T02:47:30.493Z,74.90
2023-01-09T02:50:02.353Z,76.20
2023-01-09T02:52:41.238Z,75.50
2023-01-09T02:55:42.615Z,73.70
2023-01-09T02:58:14.965Z,76.30
2023-01-09T03:00:52.412Z,75.60
2023-01-09T03:03:33.168Z,76.00
2023-01-09T03:06:22.827Z,76.00
2023-01-09T03:08:55.465Z,76.30
2023-01-09T03:11:22.644Z,75.90
2023-01-09T03:14:01.419Z,75.60
2023-01-09T03:16:35.397Z,75.70
2023-01-09T03:19:06.132Z,75.90
2023-01-09T03:21:34.421Z,75.80
2023-01-09T03:24:02.649Z,75.80
2023-01-09T03:26:31.063Z,78.10
2023-01-09T03:28:58.822Z,76.50
2023-01-09T03:31:25.712Z,76.40
2023-01-09T03:33:52.587Z,75.80
2023-01-09T03:36:21.595Z,75.90
2023-01-09T03:38:49.002Z,75.90
2023-01-09T03:41:15.796Z,77.80
2023-01-09T03:43:42.655Z,75.80
2023-01-09T03:46:09.611Z,75.90
2023-01-09T03:48:36.443Z,75.80
2023-01-09T03:51:03.335Z,75.80
2023-01-09T03:53:30.204Z,76.70
2023-01-09T03:55:58.915Z,75.60
2023-01-09T03:58:26.633Z,75.80
2023-01-09T04:00:59.670Z,75.50
2023-01-09T04:03:26.690Z,77.90
2023-01-09T04:05:53.943Z,75.60
2023-01-09T04:08:21.215Z,77.90
2023-01-09T04:10:49.893Z,75.40
2023-01-09T04:13:16.969Z,75.40
2023-01-09T04:15:44.053Z,76.20
2023-01-09T04:18:11.029Z,77.70
2023-01-09T04:20:38.001Z,77.10
2023-01-09T04:23:04.848Z,76.80
2023-01-09T04:25:31.813Z,77.50
2023-01-09T04:27:59.229Z,77.60
2023-01-09T04:30:26.366Z,75.30
2023-01-09T04:32:53.250Z,75.30
2023-01-09T04:35:20.573Z,77.50
2023-01-09T04:37:47.550Z,75.90
2023-01-09T04:40:16.086Z,73.20
2023-01-09T04:42:42.869Z,73.90
2023-01-09T04:45:11.468Z,75.50
2023-01-09T04:47:38.624Z,73.40
2023-01-09T04:50:05.770Z,73.40
2023-01-09T04:52:33.519Z,73.70
2023-01-09T04:55:00.513Z,73.90
2023-01-09T04:57:27.413Z,76.40
2023-01-09T04:59:54.491Z,75.60
2023-01-09T05:02:21.447Z,74.30
2023-01-09T05:04:48.663Z,74.50
2023-01-09T05:07:15.619Z,74.60
2023-01-09T05:09:43.570Z,77.00
2023-01-09T05:12:10.503Z,75.40
2023-01-09T05:14:37.366Z,74.90
2023-01-09T05:17:04.371Z,75.00
2023-01-09T05:19:31.279Z,75.30
2023-01-09T05:21:58.187Z,76.70
2023-01-09T05:24:25.038Z,75.10
2023-01-09T05:26:51.881Z,75.20
2023-01-09T05:29:18.817Z,75.20
2023-01-09T05:31:45.711Z,76.00
2023-01-09T05:34:12.564Z,75.50
2023-01-09T05:36:39.428Z,76.50
2023-01-09T05:39:06.569Z,75.50
2023-01-09T05:41:33.625Z,75.40
2023-01-09T05:44:00.529Z,75.30
2023-01-09T05:46:27.414Z,75.30
2023-01-09T05:48:54.226Z,76.30
2023-01-09T05:51:21.111Z,74.80
2023-01-09T05:53:48.286Z,74.60
2023-01-09T05:56:15.666Z,74.50
2023-01-09T05:58:42.486Z,74.30
2023-01-09T06:01:09.461Z,74.20
2023-01-09T06:03:36.349Z,74.10
2023-01-09T06:06:03.323Z,74.00
2023-01-09T06:08:30.204Z,74.00
2023-01-09T06:10:57.070Z,73.90
2023-01-09T06:13:23.929Z,73.60
2023-01-09T06:15:50.986Z,73.50
2023-01-09T06:18:17.879Z,73.60
2023-01-09T06:20:45.996Z,73.40
2023-01-09T06:23:13.715Z,73.40
2023-01-09T06:25:41.199Z,73.80
2023-01-09T06:28:08.277Z,73.30
2023-01-09T06:30:35.474Z,73.10
2023-01-09T06:33:02.393Z,73.20
2023-01-09T06:35:29.430Z,73.30
2023-01-09T06:37:57.061Z,73.10
2023-01-09T06:40:23.953Z,73.10
2023-01-09T06:42:50.879Z,73.10
2023-01-09T06:45:17.765Z,73.00
2023-01-09T06:47:44.807Z,72.90
2023-01-09T06:50:12.292Z,72.90
2023-01-09T06:52:39.753Z,72.70
2023-01-09T06:55:07.890Z,72.70
2023-01-09T06:57:35.157Z,72.60
2023-01-09T07:00:02.460Z,72.70
2023-01-09T07:02:29.308Z,72.50
2023-01-09T07:04:56.212Z,72.40
2023-01-09T07:07:23.096Z,74.90
2023-01-09T07:09:50.088Z,72.50
2023-01-09T07:12:17.646Z,72.20
2023-01-09T07:14:44.922Z,72.20
2023-01-09T07:17:15.228Z,72.00
2023-01-09T07:19:42.263Z,72.60
2023-01-09T07:22:09.838Z,72.10
2023-01-09T07:24:36.753Z,73.70
2023-01-09T07:27:03.670Z,71.90
2023-01-09T07:29:30.690Z,71.90
2023-01-09T07:31:57.756Z,71.80
2023-01-09T07:34:24.572Z,71.80
2023-01-09T07:36:51.781Z,71.70
2023-01-09T07:39:18.673Z,71.80
2023-01-09T07:41:46.286Z,72.30
2023-01-09T07:44:15.632Z,72.30
2023-01-09T07:46:42.479Z,72.10
2023-01-09T07:49:09.381Z,72.10
2023-01-09T07:51:39.098Z,71.80
2023-01-09T07:54:06.173Z,71.60
2023-01-09T07:56:33.370Z,71.50
2023-01-09T07:59:00.191Z,71.80
2023-01-09T08:01:27.329Z,71.50
2023-01-09T08:03:54.255Z,71.40
2023-01-09T08:06:21.097Z,71.50
2023-01-09T08:08:47.920Z,71.50
2023-01-09T08:11:14.794Z,71.50
2023-01-09T08:13:41.681Z,72.30
2023-01-09T08:16:08.958Z,71.50
2023-01-09T08:18:36.022Z,71.20
2023-01-09T08:21:02.892Z,72.50
2023-01-09T08:23:29.698Z,71.60
2023-01-09T08:25:56.501Z,71.50
2023-01-09T08:28:23.352Z,71.60
2023-01-09T08:30:50.157Z,71.60
2023-01-09T08:33:17.152Z,71.60
2023-01-09T08:35:44.560Z,71.70
2023-01-09T08:38:11.621Z,72.70
2023-01-09T08:40:38.949Z,71.50
2023-01-09T08:43:24.470Z,71.50
2023-01-09T08:46:20.629Z,71.60
2023-01-09T08:48:50.828Z,74.00
2023-01-09T08:51:17.646Z,71.40
2023-01-09T08:53:44.619Z,72.90
2023-01-09T08:56:11.444Z,71.50
2023-01-09T08:58:38.341Z,71.70
2023-01-09T09:01:06.892Z,72.00
2023-01-09T09:03:33.914Z,72.00
2023-01-09T09:06:00.703Z,72.00
2023-01-09T09:08:27.588Z,71.80
2023-01-09T09:10:54.528Z,72.40
2023-01-09T09:13:21.357Z,72.00
2023-01-09T09:15:48.305Z,74.00
2023-01-09T09:18:15.174Z,71.80
2023-01-09T09:20:42.028Z,71.90
2023-01-09T09:23:08.915Z,71.90
2023-01-09T09:25:38.386Z,72.10
2023-01-09T09:28:06.115Z,72.20
2023-01-09T09:30:33.566Z,72.30
2023-01-09T09:33:03.416Z,72.50
2023-01-09T09:35:32.588Z,72.50
2023-01-09T09:38:04.698Z,72.50
2023-01-09T09:40:50.432Z,72.40
2023-01-09T09:44:04.755Z,72.40
2023-01-09T09:46:48.641Z,72.30
2023-01-09T09:49:24.170Z,72.20
2023-01-09T09:52:23.606Z,72.20
2023-01-09T09:54:51.698Z,72.20
2023-01-09T09:57:26.044Z,72.20
2023-01-09T09:59:53.947Z,72.00
2023-01-09T10:02:38.936Z,72.10
2023-01-09T10:05:20.589Z,72.00
2023-01-09T10:07:51.423Z,72.10
2023-01-09T10:10:36.785Z,72.10
2023-01-09T10:13:22.831Z,71.80
2023-01-09T10:15:57.179Z,71.90
2023-01-09T10:18:47.454Z,71.80
2023-01-09T10:21:29.089Z,71.60
2023-01-09T10:24:14.499Z,71.30
2023-01-09T10:26:50.961Z,71.50
2023-01-09T10:29:26.878Z,71.50
2023-01-09T10:32:10.834Z,71.50
2023-01-09T10:35:00.722Z,71.40
2023-01-09T10:37:34.386Z,71.60
2023-01-09T10:40:08.064Z,71.70
2023-01-09T10:42:41.274Z,71.60
2023-01-09T10:45:42.035Z,71.40
2023-01-09T10:48:26.069Z,71.30
2023-01-09T10:50:55.998Z,71.30
2023-01-09T10:53:45.531Z,71.40
2023-01-09T10:56:23.189Z,71.00
2023-01-09T10:58:51.585Z,71.00
2023-01-09T11:01:39.380Z,71.00
2023-01-09T11:04:26.651Z,70.80
2023-01-09T11:06:59.259Z,71.00
2023-01-09T11:09:26.293Z,71.00
2023-01-09T11:11:53.157Z,71.10
2023-01-09T11:14:31.611Z,71.30
2023-01-09T11:17:02.187Z,71.80
2023-01-09T11:19:31.239Z,72.80
2023-01-09T11:22:18.196Z,71.20
2023-01-09T11:24:45.186Z,71.20
2023-01-09T11:27:25.283Z,71.30
2023-01-09T11:30:15.737Z,71.20
2023-01-09T11:32:44.634Z,71.20
2023-01-09T11:35:19.636Z,71.20
2023-01-09T11:37:48.327Z,71.10
2023-01-09T11:40:21.667Z,71.10
2023-01-09T11:43:14.254Z,70.80
2023-01-09T11:46:00.964Z,70.80
2023-01-09T11:48:40.986Z,70.60
2023-01-09T11:51:20.239Z,70.70
2023-01-09T11:53:52.568Z,70.60
2023-01-09T11:56:19.647Z,71.40
2023-01-09T11:58:46.572Z,71.70
2023-01-09T12:01:19.576Z,70.70
2023-01-09T12:03:52.679Z,70.60
2023-01-09T12:06:48.503Z,73.10
2023-01-09T12:09:32.536Z,70.30
2023-01-09T12:12:05.003Z,70.60
2023-01-09T12:15:00.782Z,70.70
2023-01-09T12:17:45.924Z,70.60
2023-01-09T12:20:39.113Z,71.20
2023-01-09T12:23:47.763Z,70.70
2023-01-09T12:26:54.996Z,70.80
2023-01-09T12:29:41.051Z,70.70
2023-01-09T12:32:34.857Z,70.80
2023-01-09T12:35:16.372Z,70.80
2023-01-09T12:37:53.277Z,70.80
2023-01-09T12:40:38.586Z,71.00
2023-01-09T12:43:47.614Z,71.10
2023-01-09T12:46:26.676Z,71.30
2023-01-09T12:48:59.440Z,73.20
2023-01-09T12:51:53.174Z,71.40
2023-01-09T12:54:36.758Z,71.60
2023-01-09T12:57:25.882Z,71.60
2023-01-09T12:59:59.860Z,71.90
2023-01-09T13:02:40.988Z,71.80
2023-01-09T13:05:19.662Z,72.00
2023-01-09T13:07:53.953Z,72.20
2023-01-09T13:10:28.532Z,74.20
2023-01-09T13:12:58.912Z,72.00
2023-01-09T13:15:41.212Z,71.90
2023-01-09T13:18:19.663Z,72.00
2023-01-09T13:20:56.677Z,74.40
2023-01-09T13:23:38.276Z,72.00
2023-01-09T13:26:09.425Z,72.70
2023-01-09T13:28:43.736Z,72.00
2023-01-09T13:31:38.168Z,72.20
2023-01-09T13:34:21.175Z,72.40
2023-01-09T13:36:51.928Z,74.50
2023-01-09T13:39:33.866Z,74.40
2023-01-09T13:42:25.386Z,71.80
2023-01-09T13:45:08.895Z,71.80
2023-01-09T13:47:35.753Z,71.70
2023-01-09T13:50:22.873Z,71.70
2023-01-09T13:52:50.345Z,71.50
2023-01-09T13:55:17.220Z,71.70
2023-01-09T13:58:05.614Z,71.50
2023-01-09T14:00:35.420Z,71.60
2023-01-09T14:03:36.875Z,71.50
2023-01-09T14:06:11.939Z,71.40
2023-01-09T14:08:41.936Z,71.40
2023-01-09T14:11:10.106Z,73.60
2023-01-09T14:13:44.073Z,71.50
2023-01-09T14:16:20.385Z,71.40
2023-01-09T14:19:12.668Z,73.20
2023-01-09T14:21:58.295Z,71.50
2023-01-09T14:24:27.964Z,72.60
2023-01-09T14:26:58.114Z,72.30
2023-01-09T14:29:44.808Z,71.50
2023-01-09T14:32:26.123Z,71.50
2023-01-09T14:35:10.863Z,71.50
2023-01-09T14:37:40.693Z,71.50
2023-01-09T14:40:15.538Z,72.10
2023-01-09T14:42:44.427Z,71.50
2023-01-09T14:45:19.416Z,71.60
2023-01-09T14:48:00.479Z,71.60
2023-01-09T14:50:45.150Z,71.70
2023-01-09T14:53:18.400Z,72.50
2023-01-09T14:55:52.952Z,71.60
2023-01-09T14:58:22.932Z,73.00
2023-01-09T15:01:05.621Z,71.60
2023-01-09T15:03:42.673Z,71.60
2023-01-09T15:06:19.906Z,71.60
2023-01-09T15:08:48.925Z,71.70
2023-01-09T15:11:15.867Z,71.70
2023-01-09T15:13:49.866Z,71.70
2023-01-09T15:16:22.648Z,71.80
2023-01-09T15:18:55.153Z,72.00
2023-01-09T15:21:25.164Z,71.90
2023-01-09T15:23:52.365Z,72.10
2023-01-09T15:26:27.896Z,71.80
2023-01-09T15:29:01.983Z,71.80
2023-01-09T15:31:29.334Z,71.70
2023-01-09T15:33:57.223Z,71.50
2023-01-09T15:36:30.901Z,71.40
2023-01-09T15:38:59.062Z,72.00
2023-01-09T15:41:47.491Z,72.00
2023-01-09T15:44:26.230Z,71.20
2023-01-09T15:46:58.071Z,71.10
2023-01-09T15:49:25.828Z,73.60
2023-01-09T15:51:54.036Z,71.10
2023-01-09T15:54:30.114Z,71.10
2023-01-09T15:57:15.730Z,71.20
2023-01-09T15:59:42.573Z,71.10
2023-01-09T16:02:32.873Z,71.00
2023-01-09T16:05:05.188Z,70.80
2023-01-09T16:07:33.095Z,71.00
2023-01-09T16:10:00.420Z,70.90
2023-01-09T16:12:28.731Z,70.90
2023-01-09T16:15:01.114Z,72.40
2023-01-09T16:17:31.187Z,73.20
2023-01-09T16:20:12.044Z,73.40
2023-01-09T16:22:53.152Z,70.80
2023-01-09T16:25:31.150Z,70.70
2023-01-09T16:28:26.780Z,70.50
2023-01-09T16:31:09.091Z,70.20
2023-01-09T16:33:36.741Z,70.30
2023-01-09T16:36:06.437Z,70.30
2023-01-09T16:38:33.860Z,70.30
2023-01-09T16:41:25.031Z,70.40
2023-01-09T16:43:52.228Z,70.30
2023-01-09T16:46:21.312Z,70.40
2023-01-09T16:48:48.716Z,70.20
2023-01-09T16:51:21.865Z,70.10
2023-01-09T16:53:50.140Z,70.10
2023-01-09T16:56:24.526Z,70.50
2023-01-09T16:58:54.596Z,70.10
2023-01-09T17:01:22.639Z,70.40
2023-01-09T17:03:50.102Z,70.20
2023-01-09T17:06:24.625Z,70.30
2023-01-09T17:08:51.621Z,70.40
2023-01-09T17:11:31.301Z,70.60
2023-01-09T17:13:58.857Z,70.40
2023-01-09T17:16:25.850Z,71.00
2023-01-09T17:18:52.779Z,70.30
2023-01-09T17:21:25.533Z,72.10
2023-01-09T17:24:12.647Z,70.40
2023-01-09T17:27:01.143Z,70.50
2023-01-09T17:29:29.218Z,70.50
2023-01-09T17:31:57.043Z,71.00
2023-01-09T17:34:23.957Z,70.80
2023-01-09T17:36:55.543Z,71.00
2023-01-09T17:39:23.707Z,71.20
2023-01-09T17:41:50.615Z,71.10
2023-01-09T17:44:17.669Z,71.20
2023-01-09T17:46:44.974Z,73.60
2023-01-09T17:49:18.359Z,71.40
2023-01-09T17:51:45.338Z,71.40
2023-01-09T17:54:12.774Z,71.50
2023-01-09T17:56:44.400Z,71.50
2023-01-09T17:59:15.136Z,71.50
2023-01-09T18:01:43.472Z,71.60
2023-01-09T18:04:11.094Z,71.50
2023-01-09T18:06:38.140Z,71.60
2023-01-09T18:09:05.670Z,71.30
2023-01-09T18:11:32.587Z,71.10
2023-01-09T18:13:59.606Z,71.10
2023-01-09T18:16:28.125Z,71.00
2023-01-09T18:18:58.033Z,70.80
2023-01-09T18:21:26.670Z,70.80
2023-01-09T18:23:54.053Z,70.70
2023-01-09T18:26:21.789Z,71.80
2023-01-09T18:28:59.498Z,70.80
2023-01-09T18:31:28.150Z,70.70
2023-01-09T18:33:56.972Z,70.80
2023-01-09T18:36:30.131Z,70.90
2023-01-09T18:38:59.488Z,71.00
2023-01-09T18:41:27.258Z,70.90
2023-01-09T18:43:56.340Z,70.90
2023-01-09T18:46:30.597Z,71.00
2023-01-09T18:49:02.674Z,70.90
2023-01-09T18:51:30.745Z,71.00
2023-01-09T18:53:58.770Z,70.90
2023-01-09T18:56:25.632Z,71.00
2023-01-09T18:58:59.731Z,71.00
2023-01-09T19:01:28.447Z,71.00
2023-01-09T19:03:56.592Z,73.00
2023-01-09T19:06:23.849Z,70.90
2023-01-09T19:08:50.746Z,71.10
2023-01-09T19:11:17.963Z,72.60
2023-01-09T19:13:44.901Z,70.70
2023-01-09T19:16:12.128Z,70.70
2023-01-09T19:18:41.391Z,70.60
2023-01-09T19:21:20.770Z,70.50
2023-01-09T19:23:48.833Z,70.50
2023-01-09T19:26:23.952Z,70.80
2023-01-09T19:28:54.946Z,70.60
2023-01-09T19:31:24.583Z,70.50
2023-01-09T19:33:52.616Z,70.50
2023-01-09T19:36:20.025Z,70.60
2023-01-09T19:38:47.048Z,70.50
2023-01-09T19:41:18.338Z,70.60
2023-01-09T19:43:46.133Z,70.50
2023-01-09T19:46:18.879Z,70.50
2023-01-09T19:48:47.316Z,70.60
2023-01-09T19:51:17.272Z,70.60
2023-01-09T19:53:45.042Z,70.60
2023-01-09T19:56:18.489Z,70.50
2023-01-09T19:58:53.220Z,70.30
2023-01-09T20:01:24.922Z,71.90
2023-01-09T20:03:53.818Z,70.20
2023-01-09T20:06:25.194Z,70.10
2023-01-09T20:08:57.133Z,70.10
2023-01-09T20:11:26.302Z,70.10
2023-01-09T20:13:55.662Z,70.10
2023-01-09T20:16:28.798Z,70.00
2023-01-09T20:19:00.318Z,69.80
2023-01-09T20:21:29.124Z,69.80
2023-01-09T20:23:59.205Z,69.80
2023-01-09T20:26:26.992Z,69.80
2023-01-09T20:28:54.378Z,69.70
2023-01-09T20:31:22.510Z,69.70
2023-01-09T20:33:51.117Z,69.80
2023-01-09T20:36:21.656Z,69.80
2023-01-09T20:38:48.981Z,69.80
2023-01-09T20:41:23.297Z,69.80
2023-01-09T20:43:51.121Z,69.80
2023-01-09T20:46:19.085Z,69.80
2023-01-09T20:48:46.329Z,69.90
2023-01-09T20:51:14.100Z,69.80
2023-01-09T20:53:55.409Z,69.80
2023-01-09T20:56:26.724Z,69.80
2023-01-09T20:58:57.014Z,69.80
2023-01-09T21:01:25.027Z,69.80
2023-01-09T21:03:53.332Z,69.80
2023-01-09T21:06:22.251Z,69.90
2023-01-09T21:08:50.977Z,70.10
2023-01-09T21:11:18.731Z,70.20
2023-01-09T21:13:46.040Z,70.40
2023-01-09T21:16:20.059Z,70.20
2023-01-09T21:18:48.080Z,70.20
2023-01-09T21:21:21.422Z,70.20
2023-01-09T21:23:51.978Z,70.20
2023-01-09T21:26:22.512Z,70.30
2023-01-09T21:28:50.494Z,70.30
2023-01-09T21:31:20.324Z,70.70
2023-01-09T21:33:49.303Z,70.40
2023-01-09T21:36:17.252Z,70.50
2023-01-09T21:38:45.848Z,70.60
2023-01-09T21:41:32.317Z,70.90
2023-01-09T21:44:17.677Z,70.70
2023-01-09T21:46:53.418Z,70.70
2023-01-09T21:49:23.152Z,70.70
2023-01-09T21:51:50.014Z,70.60
2023-01-09T21:54:16.853Z,71.90
2023-01-09T21:56:43.708Z,70.80
2023-01-09T21:59:10.562Z,70.70
2023-01-09T22:01:37.498Z,70.80
2023-01-09T22:04:04.839Z,70.90
2023-01-09T22:06:31.901Z,70.80
2023-01-09T22:08:59.243Z,70.80
2023-01-09T22:11:26.324Z,70.70
2023-01-09T22:13:53.980Z,70.80
2023-01-09T22:16:20.913Z,73.20
2023-01-09T22:18:49.757Z,72.70
2023-01-09T22:21:17.641Z,70.80
2023-01-09T22:23:44.557Z,70.80
2023-01-09T22:26:13.686Z,71.00
2023-01-09T22:28:41.207Z,70.90
2023-01-09T22:31:10.025Z,71.20
2023-01-09T22:33:37.181Z,70.90
2023-01-09T22:36:09.331Z,70.90
2023-01-09T22:38:36.894Z,70.90
2023-01-09T22:41:04.644Z,71.00
2023-01-09T22:43:32.028Z,71.00
2023-01-09T22:46:00.966Z,70.90
2023-01-09T22:48:31.335Z,71.10
2023-01-09T22:51:18.453Z,70.90
2023-01-09T22:53:45.479Z,71.50
2023-01-09T22:56:14.431Z,70.80
2023-01-09T22:58:42.752Z,70.20
2023-01-09T23:01:13.266Z,70.90
2023-01-09T23:03:41.305Z,70.90
2023-01-09T23:06:11.951Z,71.60
2023-01-09T23:08:39.257Z,70.90
2023-01-09T23:11:09.994Z,70.90
2023-01-09T23:13:37.025Z,70.90
2023-01-09T23:16:05.221Z,71.00
2023-01-09T23:18:32.101Z,71.00
2023-01-09T23:21:01.840Z,71.10
2023-01-09T23:23:30.787Z,71.10
2023-01-09T23:26:02.073Z,71.70
2023-01-09T23:28:30.457Z,71.10
2023-01-09T23:30:57.713Z,71.20
2023-01-09T23:33:25.202Z,71.20
2023-01-09T23:35:52.091Z,71.20
2023-01-09T23:38:18.920Z,71.40
2023-01-09T23:40:45.979Z,72.50
2023-01-09T23:43:15.090Z,71.30
2023-01-09T23:45:44.848Z,71.10
2023-01-09T23:48:14.142Z,71.10
2023-01-09T23:50:49.653Z,71.00
2023-01-09T23:53:17.734Z,71.00
2023-01-09T23:55:44.631Z,73.10
2023-01-09T23:58:11.620Z,71.00
